createdAt,value
2022-08-19T00:23:37.689Z,97765.94
2022-08-19T00:53:41.909Z,97758.09
2022-08-19T01:23:46.784Z,97738.84
2022-08-19T01:53:53.118Z,97720.22
2022-08-19T02:23:57.787Z,97725.81
2022-08-19T02:54:01.985Z,97731.09
2022-08-19T03:24:07.974Z,97750.66
2022-08-19T03:54:14.449Z,97739.59
2022-08-19T04:29:42.708Z,97774.84
2022-08-19T04:59:49.012Z,97775.50
2022-08-19T05:29:53.122Z,97786.72
2022-08-19T05:59:59.092Z,97793.50
2022-08-19T06:30:03.921Z,97830.50
2022-08-19T07:00:12.929Z,97876.16
2022-08-19T07:30:17.420Z,97891.84
2022-08-19T08:00:24.382Z,97909.16
2022-08-19T08:30:31.139Z,97904.16
2022-08-19T09:00:39.565Z,97903.16
2022-08-19T09:30:43.675Z,97890.13
2022-08-19T10:00:50.927Z,97881.69
2022-08-19T10:30:55.751Z,97873.88
2022-08-19T11:01:00.783Z,97835.00
2022-08-19T11:31:05.283Z,97832.38
2022-08-19T12:01:10.492Z,97849.25
2022-08-19T12:31:14.725Z,97824.44
2022-08-19T13:01:23.013Z,97776.59
2022-08-19T13:31:46.514Z,97805.84
2022-08-19T14:01:50.912Z,97785.28
2022-08-19T14:31:55.068Z,97794.06
2022-08-19T15:02:00.624Z,97798.34
2022-08-19T15:32:26.615Z,97808.25
2022-08-19T16:02:48.732Z,97786.13
2022-08-19T16:32:57.713Z,97774.09
2022-08-19T17:03:09.304Z,97793.34
2022-08-19T17:33:16.711Z,97808.19
2022-08-19T18:03:20.924Z,97815.91
2022-08-19T18:33:25.576Z,97856.84
2022-08-19T19:03:29.772Z,97878.19
2022-08-19T19:33:33.934Z,97913.88
2022-08-19T20:03:38.195Z,97943.06
2022-08-19T20:33:42.488Z,97956.97
2022-08-19T21:03:46.623Z,97965.31
2022-08-19T21:33:50.821Z,97982.06
2022-08-19T22:03:54.952Z,97972.91
2022-08-19T22:33:59.099Z,97975.31
2022-08-19T23:04:03.862Z,97968.75
2022-08-19T23:34:08.224Z,97966.16
